sensor_id;sensor_type;location;lat;lon;timestamp;temperature;humidity
12971;DHT22;6550;48.650;8.774;2024-02-14T00:00:22;8.30;99.90
12971;DHT22;6550;48.650;8.774;2024-02-14T00:02:51;8.50;99.90
12971;DHT22;6550;48.650;8.774;2024-02-14T00:05:18;8.40;99.90
12971;DHT22;6550;48.650;8.774;2024-02-14T00:07:45;8.40;99.90
12971;DHT22;6550;48.650;8.774;2024-02-14T00:10:14;8.60;99.90
12971;DHT22;6550;48.650;8.774;2024-02-14T00:12:41;8.40;99.90
12971;DHT22;6550;48.650;8.774;2024-02-14T00:15:11;8.40;99.90
12971;DHT22;6550;48.650;8.774;2024-02-14T00:17:37;8.60;99.90
12971;DHT22;6550;48.650;8.774;2024-02-14T00:20:05;8.60;99.90
12971;DHT22;6550;48.650;8.774;2024-02-14T00:22:32;8.50;99.90
12971;DHT22;6550;48.650;8.774;2024-02-14T00:25:01;8.60;99.90
12971;DHT22;6550;48.650;8.774;2024-02-14T00:29:57;8.60;99.90
12971;DHT22;6550;48.650;8.774;2024-02-14T00:32:27;8.80;99.90
12971;DHT22;6550;48.650;8.774;2024-02-14T00:34:54;8.80;99.90
12971;DHT22;6550;48.650;8.774;2024-02-14T00:37:21;8.80;99.90
12971;DHT22;6550;48.650;8.774;2024-02-14T00:42:16;9.10;99.90
12971;DHT22;6550;48.650;8.774;2024-02-14T00:44:43;8.90;99.90
12971;DHT22;6550;48.650;8.774;2024-02-14T00:49:39;9.10;99.90
12971;DHT22;6550;48.650;8.774;2024-02-14T00:52:09;9.10;99.90
12971;DHT22;6550;48.650;8.774;2024-02-14T00:54:38;9.10;99.90
12971;DHT22;6550;48.650;8.774;2024-02-14T00:57:05;9.20;99.90
12971;DHT22;6550;48.650;8.774;2024-02-14T00:59:34;9.10;99.90
12971;DHT22;6550;48.650;8.774;2024-02-14T01:02:01;9.50;99.90
12971;DHT22;6550;48.650;8.774;2024-02-14T01:04:27;9.30;99.90
12971;DHT22;6550;48.650;8.774;2024-02-14T01:06:54;9.40;99.90
12971;DHT22;6550;48.650;8.774;2024-02-14T01:09:24;9.30;99.90
12971;DHT22;6550;48.650;8.774;2024-02-14T01:11:53;9.30;99.90
12971;DHT22;6550;48.650;8.774;2024-02-14T01:14:20;9.30;99.90
12971;DHT22;6550;48.650;8.774;2024-02-14T01:16:48;9.50;99.90
12971;DHT22;6550;48.650;8.774;2024-02-14T01:19:17;9.60;99.90
12971;DHT22;6550;48.650;8.774;2024-02-14T01:21:45;9.80;99.90
12971;DHT22;6550;48.650;8.774;2024-02-14T01:24:16;9.70;99.90
12971;DHT22;6550;48.650;8.774;2024-02-14T01:26:44;9.80;99.90
12971;DHT22;6550;48.650;8.774;2024-02-14T01:29:14;9.70;99.90
12971;DHT22;6550;48.650;8.774;2024-02-14T01:31:40;9.70;99.90
12971;DHT22;6550;48.650;8.774;2024-02-14T01:34:07;9.70;99.90
12971;DHT22;6550;48.650;8.774;2024-02-14T01:36:34;9.70;99.90
12971;DHT22;6550;48.650;8.774;2024-02-14T01:39:01;9.50;99.90
12971;DHT22;6550;48.650;8.774;2024-02-14T01:41:30;9.60;99.90
12971;DHT22;6550;48.650;8.774;2024-02-14T01:43:59;10.70;99.90
12971;DHT22;6550;48.650;8.774;2024-02-14T01:46:26;9.70;99.90
12971;DHT22;6550;48.650;8.774;2024-02-14T01:51:22;9.50;99.90
12971;DHT22;6550;48.650;8.774;2024-02-14T01:53:54;9.50;99.90
12971;DHT22;6550;48.650;8.774;2024-02-14T01:56:21;9.70;99.90
12971;DHT22;6550;48.650;8.774;2024-02-14T01:58:48;9.70;99.90
12971;DHT22;6550;48.650;8.774;2024-02-14T02:01:16;9.50;99.90
12971;DHT22;6550;48.650;8.774;2024-02-14T02:06:12;9.20;99.90
12971;DHT22;6550;48.650;8.774;2024-02-14T02:08:39;9.20;99.90
12971;DHT22;6550;48.650;8.774;2024-02-14T02:11:10;9.20;99.90
12971;DHT22;6550;48.650;8.774;2024-02-14T02:13:39;9.20;99.90
12971;DHT22;6550;48.650;8.774;2024-02-14T02:16:07;9.40;99.90
12971;DHT22;6550;48.650;8.774;2024-02-14T02:21:06;9.60;99.90
12971;DHT22;6550;48.650;8.774;2024-02-14T02:23:35;9.50;99.90
12971;DHT22;6550;48.650;8.774;2024-02-14T02:26:02;9.70;99.90
12971;DHT22;6550;48.650;8.774;2024-02-14T02:28:29;9.60;99.90
12971;DHT22;6550;48.650;8.774;2024-02-14T02:30:55;9.60;99.90
12971;DHT22;6550;48.650;8.774;2024-02-14T02:33:22;9.60;99.90
12971;DHT22;6550;48.650;8.774;2024-02-14T02:35:50;9.70;99.90
12971;DHT22;6550;48.650;8.774;2024-02-14T02:38:22;10.40;99.90
12971;DHT22;6550;48.650;8.774;2024-02-14T02:40:49;9.30;99.90
12971;DHT22;6550;48.650;8.774;2024-02-14T02:43:18;9.40;99.90
12971;DHT22;6550;48.650;8.774;2024-02-14T02:45:46;9.50;99.90
12971;DHT22;6550;48.650;8.774;2024-02-14T02:48:13;9.40;99.90
12971;DHT22;6550;48.650;8.774;2024-02-14T02:50:40;9.50;99.90
12971;DHT22;6550;48.650;8.774;2024-02-14T02:53:07;9.80;99.90
12971;DHT22;6550;48.650;8.774;2024-02-14T02:58:03;9.30;99.90
12971;DHT22;6550;48.650;8.774;2024-02-14T03:00:32;9.30;99.90
12971;DHT22;6550;48.650;8.774;2024-02-14T03:05:27;10.30;99.90
12971;DHT22;6550;48.650;8.774;2024-02-14T03:07:55;10.30;99.90
12971;DHT22;6550;48.650;8.774;2024-02-14T03:10:25;10.90;99.90
12971;DHT22;6550;48.650;8.774;2024-02-14T03:12:52;9.10;99.90
12971;DHT22;6550;48.650;8.774;2024-02-14T03:15:22;9.00;99.90
12971;DHT22;6550;48.650;8.774;2024-02-14T03:17:51;9.00;99.90
12971;DHT22;6550;48.650;8.774;2024-02-14T03:20:18;8.90;99.90
12971;DHT22;6550;48.650;8.774;2024-02-14T03:22:48;8.80;99.90
12971;DHT22;6550;48.650;8.774;2024-02-14T03:25:19;9.10;99.90
12971;DHT22;6550;48.650;8.774;2024-02-14T03:27:47;8.90;99.90
12971;DHT22;6550;48.650;8.774;2024-02-14T03:30:16;8.80;99.90
12971;DHT22;6550;48.650;8.774;2024-02-14T03:32:45;8.60;99.90
12971;DHT22;6550;48.650;8.774;2024-02-14T03:35:12;8.70;99.90
12971;DHT22;6550;48.650;8.774;2024-02-14T03:37:44;8.50;99.90
12971;DHT22;6550;48.650;8.774;2024-02-14T03:40:14;8.50;99.90
12971;DHT22;6550;48.650;8.774;2024-02-14T03:42:43;8.60;99.90
12971;DHT22;6550;48.650;8.774;2024-02-14T03:45:10;8.50;99.90
12971;DHT22;6550;48.650;8.774;2024-02-14T03:47:37;8.40;99.90
12971;DHT22;6550;48.650;8.774;2024-02-14T03:50:09;8.40;99.90
12971;DHT22;6550;48.650;8.774;2024-02-14T03:52:38;8.70;99.90
12971;DHT22;6550;48.650;8.774;2024-02-14T03:55:09;8.70;99.90
12971;DHT22;6550;48.650;8.774;2024-02-14T03:57:38;8.70;99.90
12971;DHT22;6550;48.650;8.774;2024-02-14T04:00:09;8.50;99.90
12971;DHT22;6550;48.650;8.774;2024-02-14T04:02:38;8.50;99.90
12971;DHT22;6550;48.650;8.774;2024-02-14T04:05:07;8.50;99.90
12971;DHT22;6550;48.650;8.774;2024-02-14T04:07:35;8.60;99.90
12971;DHT22;6550;48.650;8.774;2024-02-14T04:10:04;8.90;99.90
12971;DHT22;6550;48.650;8.774;2024-02-14T04:12:31;8.50;99.90
12971;DHT22;6550;48.650;8.774;2024-02-14T04:14:58;8.60;99.90
12971;DHT22;6550;48.650;8.774;2024-02-14T04:17:27;8.50;99.90
12971;DHT22;6550;48.650;8.774;2024-02-14T04:19:54;8.40;99.90
12971;DHT22;6550;48.650;8.774;2024-02-14T04:22:21;8.40;99.90
12971;DHT22;6550;48.650;8.774;2024-02-14T04:24:48;8.70;99.90
12971;DHT22;6550;48.650;8.774;2024-02-14T04:27:16;8.30;99.90
12971;DHT22;6550;48.650;8.774;2024-02-14T04:29:46;8.30;99.90
12971;DHT22;6550;48.650;8.774;2024-02-14T04:32:14;8.30;99.90
12971;DHT22;6550;48.650;8.774;2024-02-14T04:34:41;8.20;99.90
12971;DHT22;6550;48.650;8.774;2024-02-14T04:39:40;8.00;99.90
12971;DHT22;6550;48.650;8.774;2024-02-14T04:42:07;8.40;99.90
12971;DHT22;6550;48.650;8.774;2024-02-14T04:44:37;8.30;99.90
12971;DHT22;6550;48.650;8.774;2024-02-14T04:47:04;8.10;99.90
12971;DHT22;6550;48.650;8.774;2024-02-14T04:49:33;8.20;99.90
12971;DHT22;6550;48.650;8.774;2024-02-14T04:54:28;8.00;99.90
12971;DHT22;6550;48.650;8.774;2024-02-14T04:59:28;9.20;99.90
12971;DHT22;6550;48.650;8.774;2024-02-14T05:01:55;9.60;99.90
12971;DHT22;6550;48.650;8.774;2024-02-14T05:04:23;9.90;99.90
12971;DHT22;6550;48.650;8.774;2024-02-14T05:09:27;8.90;99.90
12971;DHT22;6550;48.650;8.774;2024-02-14T05:11:53;8.80;99.90
12971;DHT22;6550;48.650;8.774;2024-02-14T05:14:22;9.50;99.90
12971;DHT22;6550;48.650;8.774;2024-02-14T05:16:52;9.30;99.90
12971;DHT22;6550;48.650;8.774;2024-02-14T05:21:47;8.40;99.90
12971;DHT22;6550;48.650;8.774;2024-02-14T05:24:14;8.10;99.90
12971;DHT22;6550;48.650;8.774;2024-02-14T05:26:43;8.20;99.90
12971;DHT22;6550;48.650;8.774;2024-02-14T05:29:15;8.10;99.90
12971;DHT22;6550;48.650;8.774;2024-02-14T05:31:46;8.90;99.90
12971;DHT22;6550;48.650;8.774;2024-02-14T05:36:42;8.40;99.90
12971;DHT22;6550;48.650;8.774;2024-02-14T05:39:09;8.60;99.90
12971;DHT22;6550;48.650;8.774;2024-02-14T05:41:36;8.80;99.90
12971;DHT22;6550;48.650;8.774;2024-02-14T05:44:04;8.60;99.90
12971;DHT22;6550;48.650;8.774;2024-02-14T05:46:31;8.80;99.90
12971;DHT22;6550;48.650;8.774;2024-02-14T05:48:57;9.20;99.90
12971;DHT22;6550;48.650;8.774;2024-02-14T05:51:25;9.00;99.90
12971;DHT22;6550;48.650;8.774;2024-02-14T05:53:52;9.10;99.90
12971;DHT22;6550;48.650;8.774;2024-02-14T05:56:18;9.10;99.90
12971;DHT22;6550;48.650;8.774;2024-02-14T05:58:50;9.10;99.90
12971;DHT22;6550;48.650;8.774;2024-02-14T06:03:46;8.90;99.90
12971;DHT22;6550;48.650;8.774;2024-02-14T06:06:13;8.90;99.90
12971;DHT22;6550;48.650;8.774;2024-02-14T06:08:39;9.10;99.90
12971;DHT22;6550;48.650;8.774;2024-02-14T06:11:06;9.10;99.90
12971;DHT22;6550;48.650;8.774;2024-02-14T06:13:35;9.50;99.90
12971;DHT22;6550;48.650;8.774;2024-02-14T06:16:03;9.70;99.90
12971;DHT22;6550;48.650;8.774;2024-02-14T06:18:29;9.70;99.90
12971;DHT22;6550;48.650;8.774;2024-02-14T06:23:26;9.00;99.90
12971;DHT22;6550;48.650;8.774;2024-02-14T06:25:53;9.70;99.90
12971;DHT22;6550;48.650;8.774;2024-02-14T06:28:22;8.10;99.90
12971;DHT22;6550;48.650;8.774;2024-02-14T06:30:53;7.70;99.90
12971;DHT22;6550;48.650;8.774;2024-02-14T06:35:51;7.40;99.90
12971;DHT22;6550;48.650;8.774;2024-02-14T06:38:18;7.30;99.90
12971;DHT22;6550;48.650;8.774;2024-02-14T06:40:47;7.30;99.90
12971;DHT22;6550;48.650;8.774;2024-02-14T06:43:14;7.20;99.90
12971;DHT22;6550;48.650;8.774;2024-02-14T06:45:43;7.50;99.90
12971;DHT22;6550;48.650;8.774;2024-02-14T06:48:12;7.20;99.90
12971;DHT22;6550;48.650;8.774;2024-02-14T06:50:42;7.10;99.90
12971;DHT22;6550;48.650;8.774;2024-02-14T06:53:09;7.80;99.90
12971;DHT22;6550;48.650;8.774;2024-02-14T06:55:38;7.10;99.90
12971;DHT22;6550;48.650;8.774;2024-02-14T06:58:07;7.00;99.90
12971;DHT22;6550;48.650;8.774;2024-02-14T07:03:02;7.10;99.90
12971;DHT22;6550;48.650;8.774;2024-02-14T07:05:29;7.00;99.90
12971;DHT22;6550;48.650;8.774;2024-02-14T07:10:28;6.80;99.90
12971;DHT22;6550;48.650;8.774;2024-02-14T07:15:25;7.00;99.90
12971;DHT22;6550;48.650;8.774;2024-02-14T07:17:57;7.00;99.90
12971;DHT22;6550;48.650;8.774;2024-02-14T07:20:25;7.20;99.90
12971;DHT22;6550;48.650;8.774;2024-02-14T07:22:57;7.10;99.90
12971;DHT22;6550;48.650;8.774;2024-02-14T07:25:26;7.10;99.90
12971;DHT22;6550;48.650;8.774;2024-02-14T07:27:53;7.30;99.90
12971;DHT22;6550;48.650;8.774;2024-02-14T07:30:20;7.10;99.90
12971;DHT22;6550;48.650;8.774;2024-02-14T07:32:49;7.20;99.90
12971;DHT22;6550;48.650;8.774;2024-02-14T07:35:17;7.00;99.90
12971;DHT22;6550;48.650;8.774;2024-02-14T07:37:44;7.30;99.90
12971;DHT22;6550;48.650;8.774;2024-02-14T07:40:11;7.20;99.90
12971;DHT22;6550;48.650;8.774;2024-02-14T07:45:13;7.30;99.90
12971;DHT22;6550;48.650;8.774;2024-02-14T07:47:40;7.50;99.90
12971;DHT22;6550;48.650;8.774;2024-02-14T07:50:08;7.40;99.90
12971;DHT22;6550;48.650;8.774;2024-02-14T07:52:34;7.40;99.90
12971;DHT22;6550;48.650;8.774;2024-02-14T07:55:04;7.50;99.90
12971;DHT22;6550;48.650;8.774;2024-02-14T07:57:31;7.70;99.90
12971;DHT22;6550;48.650;8.774;2024-02-14T07:59:58;7.80;99.90
12971;DHT22;6550;48.650;8.774;2024-02-14T08:02:24;7.80;99.90
12971;DHT22;6550;48.650;8.774;2024-02-14T08:04:54;7.70;99.90
12971;DHT22;6550;48.650;8.774;2024-02-14T08:07:23;7.70;99.90
12971;DHT22;6550;48.650;8.774;2024-02-14T08:09:50;7.70;99.90
12971;DHT22;6550;48.650;8.774;2024-02-14T08:12:19;8.10;99.90
12971;DHT22;6550;48.650;8.774;2024-02-14T08:17:14;8.10;99.90
12971;DHT22;6550;48.650;8.774;2024-02-14T08:19:43;8.00;99.90
12971;DHT22;6550;48.650;8.774;2024-02-14T08:22:12;8.00;99.90
12971;DHT22;6550;48.650;8.774;2024-02-14T08:27:09;8.40;99.90
12971;DHT22;6550;48.650;8.774;2024-02-14T08:29:38;8.50;99.90
12971;DHT22;6550;48.650;8.774;2024-02-14T08:32:11;8.50;99.90
12971;DHT22;6550;48.650;8.774;2024-02-14T08:37:07;8.60;99.90
12971;DHT22;6550;48.650;8.774;2024-02-14T08:39:39;8.60;99.90
12971;DHT22;6550;48.650;8.774;2024-02-14T08:44:35;8.60;99.90
12971;DHT22;6550;48.650;8.774;2024-02-14T08:47:04;9.80;99.90
12971;DHT22;6550;48.650;8.774;2024-02-14T08:49:31;8.90;99.90
12971;DHT22;6550;48.650;8.774;2024-02-14T08:52:00;9.00;99.90
12971;DHT22;6550;48.650;8.774;2024-02-14T08:59:26;8.90;99.90
12971;DHT22;6550;48.650;8.774;2024-02-14T09:04:25;9.00;99.90
12971;DHT22;6550;48.650;8.774;2024-02-14T09:06:53;9.00;99.90
12971;DHT22;6550;48.650;8.774;2024-02-14T09:09:25;9.00;99.90
12971;DHT22;6550;48.650;8.774;2024-02-14T09:11:57;9.10;99.90
12971;DHT22;6550;48.650;8.774;2024-02-14T09:14:29;8.90;99.90
12971;DHT22;6550;48.650;8.774;2024-02-14T09:16:59;9.20;99.90
12971;DHT22;6550;48.650;8.774;2024-02-14T09:21:54;9.60;99.90
12971;DHT22;6550;48.650;8.774;2024-02-14T09:24:21;9.40;99.90
12971;DHT22;6550;48.650;8.774;2024-02-14T09:31:47;9.70;99.90
12971;DHT22;6550;48.650;8.774;2024-02-14T09:34:17;9.80;99.90
12971;DHT22;6550;48.650;8.774;2024-02-14T09:36:50;9.90;99.90
12971;DHT22;6550;48.650;8.774;2024-02-14T09:39:18;9.90;99.90
12971;DHT22;6550;48.650;8.774;2024-02-14T09:41:51;10.00;99.90
12971;DHT22;6550;48.650;8.774;2024-02-14T09:46:58;10.20;99.90
12971;DHT22;6550;48.650;8.774;2024-02-14T09:49:27;10.30;99.90
12971;DHT22;6550;48.650;8.774;2024-02-14T09:51:55;11.10;99.90
12971;DHT22;6550;48.650;8.774;2024-02-14T09:54:23;11.00;99.90
12971;DHT22;6550;48.650;8.774;2024-02-14T09:56:50;10.90;99.90
12971;DHT22;6550;48.650;8.774;2024-02-14T09:59:21;11.10;99.90
12971;DHT22;6550;48.650;8.774;2024-02-14T10:01:49;11.80;99.90
12971;DHT22;6550;48.650;8.774;2024-02-14T10:04:18;11.40;99.90
12971;DHT22;6550;48.650;8.774;2024-02-14T10:06:46;11.50;99.90
12971;DHT22;6550;48.650;8.774;2024-02-14T10:09:22;11.80;99.90
12971;DHT22;6550;48.650;8.774;2024-02-14T10:11:49;11.70;99.90
12971;DHT22;6550;48.650;8.774;2024-02-14T10:14:18;12.20;99.90
12971;DHT22;6550;48.650;8.774;2024-02-14T10:16:47;12.80;99.90
12971;DHT22;6550;48.650;8.774;2024-02-14T10:19:17;12.30;99.90
12971;DHT22;6550;48.650;8.774;2024-02-14T10:21:57;12.80;99.90
12971;DHT22;6550;48.650;8.774;2024-02-14T10:24:25;12.80;99.90
12971;DHT22;6550;48.650;8.774;2024-02-14T10:26:52;12.80;99.90
12971;DHT22;6550;48.650;8.774;2024-02-14T10:29:22;13.00;99.90
12971;DHT22;6550;48.650;8.774;2024-02-14T10:31:51;13.10;99.90
12971;DHT22;6550;48.650;8.774;2024-02-14T10:34:19;12.70;99.90
12971;DHT22;6550;48.650;8.774;2024-02-14T10:36:52;12.80;99.90
12971;DHT22;6550;48.650;8.774;2024-02-14T10:39:22;12.90;99.90
12971;DHT22;6550;48.650;8.774;2024-02-14T10:41:52;13.00;99.90
12971;DHT22;6550;48.650;8.774;2024-02-14T10:44:19;13.00;99.90
12971;DHT22;6550;48.650;8.774;2024-02-14T10:46:49;13.00;99.90
12971;DHT22;6550;48.650;8.774;2024-02-14T10:49:22;13.30;99.90
12971;DHT22;6550;48.650;8.774;2024-02-14T10:54:20;13.40;99.90
12971;DHT22;6550;48.650;8.774;2024-02-14T10:56:56;13.60;99.90
12971;DHT22;6550;48.650;8.774;2024-02-14T10:59:27;13.30;99.90
12971;DHT22;6550;48.650;8.774;2024-02-14T11:01:54;13.20;99.90
12971;DHT22;6550;48.650;8.774;2024-02-14T11:06:54;13.40;99.90
12971;DHT22;6550;48.650;8.774;2024-02-14T11:09:35;13.20;99.90
12971;DHT22;6550;48.650;8.774;2024-02-14T11:12:08;13.40;99.90
12971;DHT22;6550;48.650;8.774;2024-02-14T11:17:14;13.30;99.90
12971;DHT22;6550;48.650;8.774;2024-02-14T11:22:19;13.30;99.90
12971;DHT22;6550;48.650;8.774;2024-02-14T11:24:47;13.30;99.90
12971;DHT22;6550;48.650;8.774;2024-02-14T11:27:14;13.50;99.90
12971;DHT22;6550;48.650;8.774;2024-02-14T11:29:59;13.70;99.90
12971;DHT22;6550;48.650;8.774;2024-02-14T11:32:27;13.40;99.90
12971;DHT22;6550;48.650;8.774;2024-02-14T11:34:55;13.60;99.90
12971;DHT22;6550;48.650;8.774;2024-02-14T11:37:31;13.90;99.90
12971;DHT22;6550;48.650;8.774;2024-02-14T11:39:58;14.20;99.90
12971;DHT22;6550;48.650;8.774;2024-02-14T11:42:25;14.50;99.90
12971;DHT22;6550;48.650;8.774;2024-02-14T11:47:23;14.00;99.90
12971;DHT22;6550;48.650;8.774;2024-02-14T11:49:50;13.90;99.90
12971;DHT22;6550;48.650;8.774;2024-02-14T11:52:17;14.10;99.90
12971;DHT22;6550;48.650;8.774;2024-02-14T11:54:47;14.40;99.90
12971;DHT22;6550;48.650;8.774;2024-02-14T11:57:20;14.10;99.90
12971;DHT22;6550;48.650;8.774;2024-02-14T11:59:49;14.50;99.90
12971;DHT22;6550;48.650;8.774;2024-02-14T12:02:23;14.20;99.90
12971;DHT22;6550;48.650;8.774;2024-02-14T12:04:52;14.20;99.90
12971;DHT22;6550;48.650;8.774;2024-02-14T12:07:21;14.30;99.90
12971;DHT22;6550;48.650;8.774;2024-02-14T12:09:51;14.10;99.90
12971;DHT22;6550;48.650;8.774;2024-02-14T12:12:23;14.30;99.90
12971;DHT22;6550;48.650;8.774;2024-02-14T12:14:53;14.20;99.90
12971;DHT22;6550;48.650;8.774;2024-02-14T12:17:22;14.10;99.90
12971;DHT22;6550;48.650;8.774;2024-02-14T12:24:47;14.00;99.90
12971;DHT22;6550;48.650;8.774;2024-02-14T12:27:17;13.90;99.90
12971;DHT22;6550;48.650;8.774;2024-02-14T12:29:46;13.80;99.90
12971;DHT22;6550;48.650;8.774;2024-02-14T12:32:19;13.70;99.90
12971;DHT22;6550;48.650;8.774;2024-02-14T12:37:12;13.80;99.90
12971;DHT22;6550;48.650;8.774;2024-02-14T12:39:40;13.60;99.90
12971;DHT22;6550;48.650;8.774;2024-02-14T12:42:07;13.80;99.90
12971;DHT22;6550;48.650;8.774;2024-02-14T12:47:04;14.00;99.90
12971;DHT22;6550;48.650;8.774;2024-02-14T12:49:36;14.20;99.90
12971;DHT22;6550;48.650;8.774;2024-02-14T12:52:03;14.10;99.90
12971;DHT22;6550;48.650;8.774;2024-02-14T12:54:33;13.90;99.90
12971;DHT22;6550;48.650;8.774;2024-02-14T12:57:04;14.10;99.90
12971;DHT22;6550;48.650;8.774;2024-02-14T13:02:01;14.30;99.90
12971;DHT22;6550;48.650;8.774;2024-02-14T13:04:29;14.10;99.90
12971;DHT22;6550;48.650;8.774;2024-02-14T13:06:58;14.10;99.90
12971;DHT22;6550;48.650;8.774;2024-02-14T13:14:21;14.30;99.90
12971;DHT22;6550;48.650;8.774;2024-02-14T13:19:18;14.20;99.90
12971;DHT22;6550;48.650;8.774;2024-02-14T13:21:45;14.10;99.90
12971;DHT22;6550;48.650;8.774;2024-02-14T13:24:14;13.90;99.90
12971;DHT22;6550;48.650;8.774;2024-02-14T13:26:41;14.00;99.90
12971;DHT22;6550;48.650;8.774;2024-02-14T13:29:10;14.00;99.90
12971;DHT22;6550;48.650;8.774;2024-02-14T13:31:42;13.90;99.90
12971;DHT22;6550;48.650;8.774;2024-02-14T13:36:38;13.80;99.90
12971;DHT22;6550;48.650;8.774;2024-02-14T13:41:34;13.50;99.90
12971;DHT22;6550;48.650;8.774;2024-02-14T13:44:07;13.70;99.90
12971;DHT22;6550;48.650;8.774;2024-02-14T13:46:40;13.80;99.90
12971;DHT22;6550;48.650;8.774;2024-02-14T13:51:45;13.60;99.90
12971;DHT22;6550;48.650;8.774;2024-02-14T13:54:14;13.70;99.90
12971;DHT22;6550;48.650;8.774;2024-02-14T13:56:44;13.80;99.90
12971;DHT22;6550;48.650;8.774;2024-02-14T14:01:41;13.70;99.90
12971;DHT22;6550;48.650;8.774;2024-02-14T14:04:12;13.90;99.90
12971;DHT22;6550;48.650;8.774;2024-02-14T14:06:39;13.80;99.90
12971;DHT22;6550;48.650;8.774;2024-02-14T14:11:38;13.80;99.90
12971;DHT22;6550;48.650;8.774;2024-02-14T14:14:08;13.80;99.90
12971;DHT22;6550;48.650;8.774;2024-02-14T14:16:35;14.10;99.90
12971;DHT22;6550;48.650;8.774;2024-02-14T14:19:02;13.80;99.90
12971;DHT22;6550;48.650;8.774;2024-02-14T14:21:30;14.10;99.90
12971;DHT22;6550;48.650;8.774;2024-02-14T14:23:57;13.70;99.90
12971;DHT22;6550;48.650;8.774;2024-02-14T14:28:51;13.40;99.90
12971;DHT22;6550;48.650;8.774;2024-02-14T14:36:15;13.40;99.90
12971;DHT22;6550;48.650;8.774;2024-02-14T14:41:10;13.40;99.90
12971;DHT22;6550;48.650;8.774;2024-02-14T14:43:43;13.30;99.90
12971;DHT22;6550;48.650;8.774;2024-02-14T14:46:10;13.30;99.90
12971;DHT22;6550;48.650;8.774;2024-02-14T14:48:38;13.20;99.90
12971;DHT22;6550;48.650;8.774;2024-02-14T14:51:05;13.20;99.90
12971;DHT22;6550;48.650;8.774;2024-02-14T14:53:31;14.50;99.90
12971;DHT22;6550;48.650;8.774;2024-02-14T14:55:58;13.40;99.90
12971;DHT22;6550;48.650;8.774;2024-02-14T15:00:55;13.40;99.90
12971;DHT22;6550;48.650;8.774;2024-02-14T15:05:51;13.40;99.90
12971;DHT22;6550;48.650;8.774;2024-02-14T15:13:22;13.20;99.90
12971;DHT22;6550;48.650;8.774;2024-02-14T15:15:51;13.30;99.90
12971;DHT22;6550;48.650;8.774;2024-02-14T15:18:18;13.10;99.90
12971;DHT22;6550;48.650;8.774;2024-02-14T15:20:45;13.20;99.90
12971;DHT22;6550;48.650;8.774;2024-02-14T15:23:14;13.20;99.90
12971;DHT22;6550;48.650;8.774;2024-02-14T15:28:13;13.10;99.90
12971;DHT22;6550;48.650;8.774;2024-02-14T15:30:48;13.20;99.90
12971;DHT22;6550;48.650;8.774;2024-02-14T15:33:35;13.00;99.90
12971;DHT22;6550;48.650;8.774;2024-02-14T15:36:03;13.00;99.90
12971;DHT22;6550;48.650;8.774;2024-02-14T15:38:30;13.20;99.90
12971;DHT22;6550;48.650;8.774;2024-02-14T15:40:57;13.80;99.90
12971;DHT22;6550;48.650;8.774;2024-02-14T15:43:27;13.10;99.90
12971;DHT22;6550;48.650;8.774;2024-02-14T15:48:24;12.90;99.90
12971;DHT22;6550;48.650;8.774;2024-02-14T15:50:55;13.20;99.90
12971;DHT22;6550;48.650;8.774;2024-02-14T15:55:55;12.80;99.90
12971;DHT22;6550;48.650;8.774;2024-02-14T15:58:22;14.70;99.90
12971;DHT22;6550;48.650;8.774;2024-02-14T16:05:48;12.90;99.90
12971;DHT22;6550;48.650;8.774;2024-02-14T16:08:18;12.80;99.90
12971;DHT22;6550;48.650;8.774;2024-02-14T16:10:48;13.10;99.90
12971;DHT22;6550;48.650;8.774;2024-02-14T16:18:16;12.50;99.90
12971;DHT22;6550;48.650;8.774;2024-02-14T16:20:47;12.80;99.90
12971;DHT22;6550;48.650;8.774;2024-02-14T16:23:14;12.60;99.90
12971;DHT22;6550;48.650;8.774;2024-02-14T16:25:44;12.80;99.90
12971;DHT22;6550;48.650;8.774;2024-02-14T16:28:13;12.70;99.90
12971;DHT22;6550;48.650;8.774;2024-02-14T16:30:43;12.60;99.90
12971;DHT22;6550;48.650;8.774;2024-02-14T16:33:11;12.70;99.90
12971;DHT22;6550;48.650;8.774;2024-02-14T16:35:38;12.40;99.90
12971;DHT22;6550;48.650;8.774;2024-02-14T16:38:06;12.40;99.90
12971;DHT22;6550;48.650;8.774;2024-02-14T16:40:34;12.30;99.90
12971;DHT22;6550;48.650;8.774;2024-02-14T16:43:03;12.40;99.90
12971;DHT22;6550;48.650;8.774;2024-02-14T16:45:31;12.30;99.90
12971;DHT22;6550;48.650;8.774;2024-02-14T16:48:01;12.40;99.90
12971;DHT22;6550;48.650;8.774;2024-02-14T16:50:28;12.60;99.90
12971;DHT22;6550;48.650;8.774;2024-02-14T16:52:57;12.60;99.90
12971;DHT22;6550;48.650;8.774;2024-02-14T16:55:26;12.30;99.90
12971;DHT22;6550;48.650;8.774;2024-02-14T16:57:54;12.20;99.90
12971;DHT22;6550;48.650;8.774;2024-02-14T17:00:23;12.10;99.90
12971;DHT22;6550;48.650;8.774;2024-02-14T17:05:17;12.40;99.90
12971;DHT22;6550;48.650;8.774;2024-02-14T17:10:17;12.10;99.90
12971;DHT22;6550;48.650;8.774;2024-02-14T17:15:12;12.20;99.90
12971;DHT22;6550;48.650;8.774;2024-02-14T17:17:39;12.10;99.90
12971;DHT22;6550;48.650;8.774;2024-02-14T17:20:07;12.20;99.90
12971;DHT22;6550;48.650;8.774;2024-02-14T17:22:36;12.30;99.90
12971;DHT22;6550;48.650;8.774;2024-02-14T17:25:05;12.10;99.90
12971;DHT22;6550;48.650;8.774;2024-02-14T17:27:35;12.10;99.90
12971;DHT22;6550;48.650;8.774;2024-02-14T17:30:01;12.10;99.90
12971;DHT22;6550;48.650;8.774;2024-02-14T17:32:35;12.10;99.90
12971;DHT22;6550;48.650;8.774;2024-02-14T17:35:07;12.00;99.90
12971;DHT22;6550;48.650;8.774;2024-02-14T17:37:34;12.10;99.90
12971;DHT22;6550;48.650;8.774;2024-02-14T17:40:05;12.00;99.90
12971;DHT22;6550;48.650;8.774;2024-02-14T17:42:33;12.10;99.90
12971;DHT22;6550;48.650;8.774;2024-02-14T17:45:02;13.90;99.90
12971;DHT22;6550;48.650;8.774;2024-02-14T17:47:32;12.00;99.90
12971;DHT22;6550;48.650;8.774;2024-02-14T17:50:02;12.10;99.90
12971;DHT22;6550;48.650;8.774;2024-02-14T17:52:31;12.20;99.90
12971;DHT22;6550;48.650;8.774;2024-02-14T17:55:02;12.10;99.90
12971;DHT22;6550;48.650;8.774;2024-02-14T17:57:34;12.00;99.90
12971;DHT22;6550;48.650;8.774;2024-02-14T18:00:03;12.00;99.90
12971;DHT22;6550;48.650;8.774;2024-02-14T18:02:33;12.20;99.90
12971;DHT22;6550;48.650;8.774;2024-02-14T18:05:03;12.20;99.90
12971;DHT22;6550;48.650;8.774;2024-02-14T18:07:30;12.10;99.90
12971;DHT22;6550;48.650;8.774;2024-02-14T18:09:58;12.20;99.90
12971;DHT22;6550;48.650;8.774;2024-02-14T18:12:24;12.00;99.90
12971;DHT22;6550;48.650;8.774;2024-02-14T18:14:52;12.10;99.90
12971;DHT22;6550;48.650;8.774;2024-02-14T18:17:20;12.00;99.90
12971;DHT22;6550;48.650;8.774;2024-02-14T18:22:19;12.00;99.90
12971;DHT22;6550;48.650;8.774;2024-02-14T18:24:50;12.00;99.90
12971;DHT22;6550;48.650;8.774;2024-02-14T18:27:17;11.90;99.90
12971;DHT22;6550;48.650;8.774;2024-02-14T18:32:20;11.90;99.90
12971;DHT22;6550;48.650;8.774;2024-02-14T18:34:47;12.60;99.90
12971;DHT22;6550;48.650;8.774;2024-02-14T18:37:17;12.10;99.90
12971;DHT22;6550;48.650;8.774;2024-02-14T18:39:44;11.80;99.90
12971;DHT22;6550;48.650;8.774;2024-02-14T18:42:13;11.70;99.90
12971;DHT22;6550;48.650;8.774;2024-02-14T18:49:35;11.70;99.90
12971;DHT22;6550;48.650;8.774;2024-02-14T18:52:05;12.10;99.90
12971;DHT22;6550;48.650;8.774;2024-02-14T18:54:32;11.70;99.90
12971;DHT22;6550;48.650;8.774;2024-02-14T18:57:01;11.80;99.90
12971;DHT22;6550;48.650;8.774;2024-02-14T18:59:31;11.70;99.90
12971;DHT22;6550;48.650;8.774;2024-02-14T19:01:58;11.70;99.90